ADDS TAF Board (Experimental) INFO Settings
IDs: Format: Expanded Condensed

KLAX - Los Angeles Intl, CA, US

Issued at 2041 UTC 29 May 2016
Updated at: 2103 UTC 29 May 2016
Time2053Z 29/22Z 29/23Z 30/00Z 30/01Z 30/02Z 30/03Z 30/04Z 30/05Z 30/06Z 30/07Z 30/08Z 30/09Z 30/10Z
Type OBS PRVL PRVL PRVL PRVL PRVL PRVL PRVL PRVL PRVL PRVL PRVL PRVL PRVL
VIS 10 >6 >6 >6 >6 >6 >6 >6 6 6 6 6 6 6
CIG -- -- 27 27 27 27 12 12 12 12 12 12 12 12
Cover SCT SCT BKN BKN BKN BKN OVC OVC OVC OVC OVC OVC OVC OVC
FltCat VFR VFR MVFR MVFR MVFR MVFR MVFR MVFR MVFR MVFR MVFR MVFR MVFR MVFR
WX -- -- -- -- -- -- -- -- BR BR BR BR BR BR
WDir 260 260 250 250 250 250 250 250 VRB VRB VRB VRB VRB VRB
WSpd 14 10 12 12 12 12 8 8 3 3 3 3 3 3
WGst -- -- -- -- -- -- -- -- -- -- -- -- -- --
R06/24
XWnd -1 -1 -3 -3 -3 -3 -2 -2 VRB VRB VRB VRB VRB VRB
HWnd -14 -10 -12 -12 -12 -12 -8 -8 VRB VRB VRB VRB VRB VRB
R07/25
XWnd -1 -1 -3 -3 -3 -3 -2 -2 VRB VRB VRB VRB VRB VRB
HWnd -14 -10 -12 -12 -12 -12 -8 -8 VRB VRB VRB VRB VRB VRB

NOTE: TEMPO conditions in [brackets]. Keep in mind TEMPO conditions might be better (lower impact) than prevailing conditions.

Raw TAF
KLAX 292041Z 2921/3024 26010KT P6SM SCT035
  FM292300 25012KT P6SM BKN027
  FM300300 25008KT P6SM OVC012
  FM300500 VRB03KT 6SM BR OVC012
  FM301700 VRB03KT 6SM HZ BKN020
  FM302000 25012KT P6SM BKN025


Raw METAR
KLAX 292053Z 26014KT 10SM FEW029 SCT090 19/12 A3001 RMK AO2 SLP160 T01940117 58005 $
KLAX 291953Z 27009KT 10SM FEW029 19/12 A3001 RMK AO2 SLP162 T01940117 $
KLAX 291853Z 27009KT 10SM SCT031 19/12 A3002 RMK AO2 SLP165 T01890117 $

METAR Board
Radar Display
Forecast Discussion

TAF Board Legend

Potential Impact
Threat None Slight Moderate High
Visibility (sm) ≥5.1 5.1>X≥3 3>X≥1 <1
Ceiling (100 ft) ≥30.1 30.1>X≥10 10>X≥5 <5
Wind Speed (kt) <10 10≤X<20 20≤X<30 ≥30
Wind Gust (kt) <15 15≤X<25 25≤X<35 ≥35
Weather No Wx Reported VCTS,-TS,-FZRA,SN TS,FZRA +TS,+FZRA,+SN